Time;durP1;ratioP1;P1;durP2;ratioP2;P2;SDS_P1;SDS_P2;PMS_P1;PMS_P2;Temp;Humidity;BMP_temperature;BMP_pressure;BME280_temperature;BME280_humidity;BME280_pressure;Samples;Min_cycle;Max_cycle;Signal;HPM_P1;HPM_P2
2023/12/12 00:01:31;;;;;;;21.70;12.45;;;;;;;;;;6214445;28;20248;-72
2023/12/12 00:04:33;;;;;;;18.83;9.80;;;;;;;;;;6229469;28;20030;-72
2023/12/12 00:07:35;;;;;;;19.52;11.93;;;;;;;;;;6214603;28;20156;-73
2023/12/12 00:10:37;;;;;;;20.92;13.32;;;;;;;;;;6209288;28;20069;-72
2023/12/12 00:13:41;;;;;;;18.50;11.02;;;;;;;;;;6214626;28;20057;-73
2023/12/12 00:16:43;;;;;;;17.45;10.02;;;;;;;;;;6208596;28;20057;-72
2023/12/12 00:19:45;;;;;;;19.60;10.27;;;;;;;;;;6231811;28;20080;-73
2023/12/12 00:22:47;;;;;;;17.55;9.75;;;;;;;;;;6217924;28;20052;-72
2023/12/12 00:25:50;;;;;;;14.80;8.70;;;;;;;;;;6222206;28;20049;-72
2023/12/12 00:28:52;;;;;;;13.35;7.75;;;;;;;;;;6193932;28;20068;-73
2023/12/12 00:31:54;;;;;;;11.93;7.88;;;;;;;;;;6211581;28;20817;-72
2023/12/12 00:34:56;;;;;;;15.98;8.10;;;;;;;;;;6241833;28;20056;-72
2023/12/12 00:37:58;;;;;;;14.65;7.65;;;;;;;;;;6219600;28;20048;-73
2023/12/12 00:41:01;;;;;;;16.27;7.95;;;;;;;;;;6201077;28;20077;-73
2023/12/12 00:44:04;;;;;;;15.07;8.10;;;;;;;;;;6220152;28;20120;-74
2023/12/12 00:47:06;;;;;;;12.93;7.10;;;;;;;;;;6221889;28;20049;-73
2023/12/12 00:50:08;;;;;;;17.15;7.57;;;;;;;;;;6233006;28;20053;-73
2023/12/12 00:53:10;;;;;;;13.63;8.15;;;;;;;;;;6215958;28;20085;-73
2023/12/12 00:56:12;;;;;;;13.13;8.45;;;;;;;;;;6224287;28;20049;-73
2023/12/12 00:59:15;;;;;;;14.35;7.38;;;;;;;;;;6219703;28;20053;-73
2023/12/12 01:02:17;;;;;;;12.20;7.13;;;;;;;;;;6229523;28;20549;-74
2023/12/12 01:05:19;;;;;;;27.67;13.30;;;;;;;;;;6219527;28;20063;-73
2023/12/12 01:08:21;;;;;;;20.63;10.23;;;;;;;;;;6220752;28;20060;-73
2023/12/12 01:11:22;;;;;;;20.80;9.93;;;;;;;;;;6220436;28;20042;-73
2023/12/12 01:14:25;;;;;;;19.85;8.77;;;;;;;;;;6234751;28;20050;-72
2023/12/12 01:17:28;;;;;;;18.15;8.18;;;;;;;;;;6226027;28;20053;-74
2023/12/12 01:20:30;;;;;;;13.77;7.78;;;;;;;;;;6221636;28;20073;-73
2023/12/12 01:23:47;;;;;;;14.48;8.98;;;;;;;;;;6218443;28;20037;-73
2023/12/12 01:26:49;;;;;;;17.27;9.27;;;;;;;;;;6233750;28;20179;-73
2023/12/12 01:29:51;;;;;;;22.77;12.43;;;;;;;;;;6195433;28;20050;-73
2023/12/12 01:32:53;;;;;;;18.05;11.27;;;;;;;;;;6201081;28;20541;-72
2023/12/12 01:35:55;;;;;;;23.48;10.45;;;;;;;;;;6232950;28;20060;-73
2023/12/12 01:38:59;;;;;;;26.02;14.65;;;;;;;;;;6216587;28;20046;-75
2023/12/12 01:42:02;;;;;;;27.17;14.25;;;;;;;;;;6222299;28;20060;-73
2023/12/12 01:45:04;;;;;;;30.85;15.80;;;;;;;;;;6209560;28;20924;-73
2023/12/12 01:48:06;;;;;;;27.58;16.23;;;;;;;;;;6228650;28;20510;-73
2023/12/12 01:51:09;;;;;;;34.38;20.02;;;;;;;;;;6199718;28;20060;-73
2023/12/12 01:54:12;;;;;;;31.23;19.00;;;;;;;;;;6227895;28;20049;-73
2023/12/12 01:57:16;;;;;;;24.40;15.23;;;;;;;;;;6208917;28;20581;-73
2023/12/12 02:00:18;;;;;;;37.95;21.02;;;;;;;;;;6196996;28;20037;-73
2023/12/12 02:03:22;;;;;;;26.92;14.57;;;;;;;;;;6212400;28;20053;-74
2023/12/12 02:06:24;;;;;;;27.35;15.82;;;;;;;;;;6217546;28;20537;-72
2023/12/12 02:09:27;;;;;;;39.83;19.65;;;;;;;;;;6232145;28;20044;-73
2023/12/12 02:12:29;;;;;;;43.20;21.27;;;;;;;;;;6220616;28;20371;-72
2023/12/12 02:15:31;;;;;;;30.27;18.85;;;;;;;;;;6222295;28;20868;-73
2023/12/12 02:18:33;;;;;;;40.63;20.95;;;;;;;;;;6217408;28;20045;-73
2023/12/12 02:21:35;;;;;;;34.42;19.52;;;;;;;;;;6215984;28;20914;-73
2023/12/12 02:24:37;;;;;;;31.42;17.38;;;;;;;;;;6209825;28;20203;-73
2023/12/12 02:27:39;;;;;;;29.10;16.25;;;;;;;;;;6211402;28;20049;-73
2023/12/12 02:30:42;;;;;;;37.85;23.88;;;;;;;;;;6214938;28;20053;-73
2023/12/12 02:33:44;;;;;;;34.55;16.52;;;;;;;;;;6231245;28;20086;-73
2023/12/12 02:36:47;;;;;;;34.78;20.38;;;;;;;;;;6219377;28;20073;-74
2023/12/12 02:39:50;;;;;;;64.25;29.02;;;;;;;;;;6225004;28;20049;-73
2023/12/12 02:42:52;;;;;;;40.08;20.35;;;;;;;;;;6223207;28;20839;-73
2023/12/12 02:45:54;;;;;;;32.40;17.52;;;;;;;;;;6229807;28;20093;-73
2023/12/12 02:48:56;;;;;;;33.60;17.52;;;;;;;;;;6231976;28;20863;-73
2023/12/12 02:51:59;;;;;;;29.90;15.18;;;;;;;;;;6228065;28;20136;-73
2023/12/12 02:55:01;;;;;;;25.55;15.27;;;;;;;;;;6227081;28;20107;-73
2023/12/12 02:58:03;;;;;;;28.42;15.00;;;;;;;;;;6216392;28;20440;-73
2023/12/12 03:01:05;;;;;;;26.75;15.65;;;;;;;;;;6210995;28;20053;-72
2023/12/12 03:04:07;;;;;;;23.35;14.75;;;;;;;;;;6228667;28;20831;-74
2023/12/12 03:07:10;;;;;;;31.20;19.13;;;;;;;;;;6177300;28;20045;-73
2023/12/12 03:10:12;;;;;;;29.20;16.25;;;;;;;;;;6211488;28;20065;-73
2023/12/12 03:13:14;;;;;;;24.20;14.05;;;;;;;;;;6211848;28;20527;-73
2023/12/12 03:16:16;;;;;;;32.35;16.02;;;;;;;;;;6226752;28;20045;-73
2023/12/12 03:19:18;;;;;;;14.45;8.25;;;;;;;;;;6193920;28;20204;-72
2023/12/12 03:22:21;;;;;;;25.10;14.02;;;;;;;;;;6227287;28;20530;-73
2023/12/12 03:25:23;;;;;;;28.13;16.15;;;;;;;;;;6224169;28;20041;-73
2023/12/12 03:28:28;;;;;;;30.13;16.70;;;;;;;;;;6214823;28;20045;-73
2023/12/12 03:31:31;;;;;;;;;;;;;;;;;;6198109;28;20053;-73
2023/12/12 03:34:33;;;;;;;24.85;14.73;;;;;;;;;;6212189;28;19936;-73
2023/12/12 03:37:35;;;;;;;25.63;13.65;;;;;;;;;;6207267;28;20048;-73
2023/12/12 03:40:37;;;;;;;25.33;13.98;;;;;;;;;;6196426;28;20046;-72
2023/12/12 03:43:39;;;;;;;23.60;14.95;;;;;;;;;;6209256;28;20056;-73
2023/12/12 03:46:41;;;;;;;23.05;13.05;;;;;;;;;;6210470;28;20049;-73
2023/12/12 03:49:43;;;;;;;22.33;13.60;;;;;;;;;;6214381;28;20053;-73
2023/12/12 03:52:45;;;;;;;24.60;15.38;;;;;;;;;;6211981;28;20439;-73
2023/12/12 03:55:47;;;;;;;27.75;14.35;;;;;;;;;;6195655;28;20045;-73
2023/12/12 03:58:49;;;;;;;27.55;15.65;;;;;;;;;;6199564;28;20106;-73
2023/12/12 04:01:51;;;;;;;32.42;14.85;;;;;;;;;;6221775;28;20403;-73
2023/12/12 04:04:54;;;;;;;29.10;14.88;;;;;;;;;;6224866;28;20518;-73
2023/12/12 04:07:56;;;;;;;34.53;21.10;;;;;;;;;;6195236;28;20045;-73
2023/12/12 04:10:58;;;;;;;87.47;52.25;;;;;;;;;;6226471;28;20887;-73
2023/12/12 04:14:00;;;;;;;58.08;35.78;;;;;;;;;;6223428;28;20038;-73
2023/12/12 04:17:03;;;;;;;39.60;25.17;;;;;;;;;;6200853;28;20057;-72
2023/12/12 04:20:06;;;;;;;37.15;23.05;;;;;;;;;;6186729;28;20137;-72
2023/12/12 04:23:08;;;;;;;36.22;20.92;;;;;;;;;;6198077;28;20132;-73
2023/12/12 04:26:12;;;;;;;26.33;17.73;;;;;;;;;;6181289;28;20045;-72
2023/12/12 04:29:14;;;;;;;36.15;18.85;;;;;;;;;;6198050;28;20773;-72
2023/12/12 04:32:17;;;;;;;28.70;16.85;;;;;;;;;;6213132;28;20073;-73
2023/12/12 04:35:21;;;;;;;28.85;19.00;;;;;;;;;;6199414;28;20041;-73
2023/12/12 04:38:23;;;;;;;24.77;15.63;;;;;;;;;;6205672;28;20189;-72
2023/12/12 04:41:25;;;;;;;28.00;14.60;;;;;;;;;;6185758;28;20034;-73
2023/12/12 04:44:27;;;;;;;37.00;21.27;;;;;;;;;;6193441;28;20046;-72
2023/12/12 04:47:31;;;;;;;35.67;21.48;;;;;;;;;;6212945;28;20054;-72
2023/12/12 04:50:33;;;;;;;35.25;20.55;;;;;;;;;;6199509;28;20522;-73
2023/12/12 04:53:35;;;;;;;34.70;18.58;;;;;;;;;;6152752;28;20714;-74
2023/12/12 04:56:37;;;;;;;32.50;17.08;;;;;;;;;;6194940;28;20556;-73
2023/12/12 04:59:39;;;;;;;24.73;14.50;;;;;;;;;;6188004;28;20054;-73
2023/12/12 05:02:42;;;;;;;27.35;15.27;;;;;;;;;;6214858;28;20050;-73
2023/12/12 05:05:45;;;;;;;28.42;17.15;;;;;;;;;;6201278;28;20100;-74
2023/12/12 05:08:47;;;;;;;30.35;16.40;;;;;;;;;;6211749;28;20129;-73
2023/12/12 05:11:49;;;;;;;33.00;18.52;;;;;;;;;;6202498;28;20061;-73
2023/12/12 05:14:51;;;;;;;33.80;16.88;;;;;;;;;;6225152;28;20435;-73
2023/12/12 05:17:53;;;;;;;29.15;16.95;;;;;;;;;;6232310;28;20045;-73
2023/12/12 05:20:55;;;;;;;27.92;15.95;;;;;;;;;;6205009;28;20148;-73
2023/12/12 05:23:58;;;;;;;26.27;17.88;;;;;;;;;;6177992;28;20603;-73
2023/12/12 05:27:00;;;;;;;38.47;21.35;;;;;;;;;;6224560;28;20072;-73
2023/12/12 05:30:02;;;;;;;32.70;20.45;;;;;;;;;;6233378;28;20108;-72
2023/12/12 05:33:04;;;;;;;56.47;29.20;;;;;;;;;;6231713;28;20033;-73
2023/12/12 05:36:07;;;;;;;68.97;35.22;;;;;;;;;;6237654;28;20064;-73
2023/12/12 05:39:09;;;;;;;58.45;29.20;;;;;;;;;;6229618;28;20114;-73
2023/12/12 05:42:12;;;;;;;34.92;21.33;;;;;;;;;;6232284;28;20058;-73
2023/12/12 05:45:14;;;;;;;39.60;20.50;;;;;;;;;;6231268;28;20483;-73
2023/12/12 05:48:16;;;;;;;29.98;18.20;;;;;;;;;;6231382;28;20164;-73
2023/12/12 05:51:18;;;;;;;32.92;18.00;;;;;;;;;;6223024;28;20053;-73
2023/12/12 05:54:20;;;;;;;25.67;16.13;;;;;;;;;;6227379;28;20076;-73
2023/12/12 05:57:27;;;;;;;25.63;17.00;;;;;;;;;;6203472;28;20037;-72
2023/12/12 06:00:29;;;;;;;42.45;17.45;;;;;;;;;;6209449;28;20045;-73
2023/12/12 06:03:31;;;;;;;25.75;14.73;;;;;;;;;;6233125;28;20045;-73
2023/12/12 06:06:41;;;;;;;27.73;15.23;;;;;;;;;;6224226;28;20041;-73
2023/12/12 06:09:44;;;;;;;27.38;15.70;;;;;;;;;;6233689;28;20053;-73
2023/12/12 06:12:46;;;;;;;31.95;20.17;;;;;;;;;;6233838;28;20037;-73
2023/12/12 06:15:49;;;;;;;55.25;29.55;;;;;;;;;;6202255;28;20819;-75
2023/12/12 06:18:51;;;;;;;32.90;20.10;;;;;;;;;;6231999;28;20705;-73
2023/12/12 06:21:54;;;;;;;25.65;14.90;;;;;;;;;;6211829;28;20053;-73
2023/12/12 06:24:56;;;;;;;29.02;16.38;;;;;;;;;;6218788;28;20045;-73
2023/12/12 06:27:58;;;;;;;22.88;13.27;;;;;;;;;;6213672;28;20053;-73
2023/12/12 06:31:01;;;;;;;21.25;14.25;;;;;;;;;;6214966;28;20549;-73
2023/12/12 06:34:04;;;;;;;88.57;36.97;;;;;;;;;;6229289;28;20052;-73
2023/12/12 06:37:06;;;;;;;28.67;16.42;;;;;;;;;;6233208;28;20057;-73
2023/12/12 06:40:09;;;;;;;34.63;18.15;;;;;;;;;;6219707;28;20053;-73
2023/12/12 06:43:15;;;;;;;32.17;19.10;;;;;;;;;;6195358;28;20045;-73
2023/12/12 06:46:18;;;;;;;24.20;14.07;;;;;;;;;;6213084;28;20041;-73
2023/12/12 06:49:21;;;;;;;23.60;13.10;;;;;;;;;;6213018;28;20057;-72
2023/12/12 06:52:23;;;;;;;60.60;33.72;;;;;;;;;;6215097;28;20049;-73
2023/12/12 06:55:25;;;;;;;66.60;38.63;;;;;;;;;;6215483;28;20029;-72
2023/12/12 06:58:27;;;;;;;66.55;38.00;;;;;;;;;;6230845;28;20176;-73
2023/12/12 07:01:30;;;;;;;33.00;19.65;;;;;;;;;;6226537;28;20059;-73
2023/12/12 07:04:32;;;;;;;52.53;28.70;;;;;;;;;;6208047;28;20044;-72
2023/12/12 07:07:34;;;;;;;29.30;16.52;;;;;;;;;;6209257;28;20056;-73
2023/12/12 07:10:37;;;;;;;28.55;18.70;;;;;;;;;;6192598;28;20053;-71
2023/12/12 07:13:39;;;;;;;31.80;17.08;;;;;;;;;;6211702;28;20044;-73
2023/12/12 07:16:41;;;;;;;38.63;23.30;;;;;;;;;;6225175;28;20136;-72
2023/12/12 07:19:44;;;;;;;38.00;22.85;;;;;;;;;;6212902;28;20049;-72
2023/12/12 07:22:47;;;;;;;34.17;19.67;;;;;;;;;;6210113;28;20045;-72
2023/12/12 07:25:49;;;;;;;33.67;17.27;;;;;;;;;;6220361;28;20049;-72
2023/12/12 07:28:51;;;;;;;35.50;18.85;;;;;;;;;;6209866;28;20052;-72
2023/12/12 07:31:53;;;;;;;26.27;17.45;;;;;;;;;;6201821;28;20141;-73
2023/12/12 07:34:56;;;;;;;27.73;15.75;;;;;;;;;;6217902;28;20195;-73
2023/12/12 07:38:00;;;;;;;25.33;13.52;;;;;;;;;;6221013;28;20046;-73
2023/12/12 07:41:07;;;;;;;27.55;13.77;;;;;;;;;;6217270;28;20056;-73
2023/12/12 07:44:09;;;;;;;24.38;13.05;;;;;;;;;;6238872;28;20446;-74
2023/12/12 07:47:12;;;;;;;27.00;14.07;;;;;;;;;;6196364;28;20220;-74
2023/12/12 07:50:16;;;;;;;25.77;13.80;;;;;;;;;;6235246;28;20049;-75
2023/12/12 07:53:19;;;;;;;31.10;18.38;;;;;;;;;;6215754;28;20124;-74
2023/12/12 07:56:20;;;;;;;26.98;15.73;;;;;;;;;;6232199;28;20477;-73
2023/12/12 07:59:22;;;;;;;31.38;18.60;;;;;;;;;;6218331;28;20061;-73
2023/12/12 08:02:24;;;;;;;21.52;12.90;;;;;;;;;;6234474;28;20038;-73
2023/12/12 08:05:27;;;;;;;19.92;12.90;;;;;;;;;;6222398;28;20037;-73
2023/12/12 08:08:31;;;;;;;26.63;15.93;;;;;;;;;;6228200;28;20058;-73
2023/12/12 08:11:33;;;;;;;24.02;14.07;;;;;;;;;;6230681;28;20163;-72
2023/12/12 08:14:36;;;;;;;24.40;12.68;;;;;;;;;;6218239;28;20046;-72
2023/12/12 08:17:41;;;;;;;;;;;;;;;;;;6197610;28;20076;-73
2023/12/12 08:20:43;;;;;;;22.65;13.82;;;;;;;;;;6202020;28;20204;-72
2023/12/12 08:23:48;;;;;;;21.63;12.82;;;;;;;;;;6216151;28;20458;-73
2023/12/12 08:26:50;;;;;;;21.63;13.98;;;;;;;;;;6190884;28;20896;-73
2023/12/12 08:29:52;;;;;;;19.40;12.52;;;;;;;;;;6215754;28;20053;-72
2023/12/12 08:32:54;;;;;;;20.30;12.40;;;;;;;;;;6196817;28;20133;-72
2023/12/12 08:35:57;;;;;;;23.15;13.23;;;;;;;;;;6198386;28;20573;-73
2023/12/12 08:39:00;;;;;;;23.67;12.77;;;;;;;;;;6213194;28;20549;-73
2023/12/12 08:42:03;;;;;;;21.58;12.60;;;;;;;;;;6198943;28;20067;-73
2023/12/12 08:45:06;;;;;;;21.25;12.75;;;;;;;;;;6207690;28;20393;-73
2023/12/12 08:48:09;;;;;;;20.13;12.32;;;;;;;;;;6215505;28;20068;-75
2023/12/12 08:51:11;;;;;;;20.30;14.07;;;;;;;;;;6196153;28;20742;-75
2023/12/12 08:54:13;;;;;;;23.90;12.07;;;;;;;;;;6212486;28;20374;-74
2023/12/12 08:57:17;;;;;;;29.02;13.52;;;;;;;;;;6223083;28;20626;-74
2023/12/12 09:00:20;;;;;;;19.65;11.82;;;;;;;;;;6197081;28;20740;-74
2023/12/12 09:03:22;;;;;;;20.60;12.05;;;;;;;;;;6208881;28;20113;-73
2023/12/12 09:06:24;;;;;;;20.75;12.82;;;;;;;;;;6218790;28;20040;-74
2023/12/12 09:09:27;;;;;;;22.65;13.38;;;;;;;;;;6196462;28;20675;-72
2023/12/12 09:12:29;;;;;;;19.48;10.85;;;;;;;;;;6199766;28;20042;-73
2023/12/12 09:15:32;;;;;;;23.40;13.32;;;;;;;;;;6218848;28;20699;-73
2023/12/12 09:18:34;;;;;;;23.02;13.57;;;;;;;;;;6231764;28;20057;-73
2023/12/12 09:21:36;;;;;;;25.92;14.13;;;;;;;;;;6218264;28;20089;-72
2023/12/12 09:24:38;;;;;;;23.45;14.45;;;;;;;;;;6237338;28;20088;-72
2023/12/12 09:27:40;;;;;;;25.40;16.67;;;;;;;;;;6212918;28;20054;-72
2023/12/12 09:30:42;;;;;;;20.52;14.50;;;;;;;;;;6236496;28;20160;-72
2023/12/12 09:33:45;;;;;;;20.00;11.20;;;;;;;;;;6240334;28;20981;-72
2023/12/12 09:36:47;;;;;;;24.45;12.27;;;;;;;;;;6228058;28;20176;-73
2023/12/12 09:39:49;;;;;;;23.27;12.40;;;;;;;;;;6237635;28;20045;-73
2023/12/12 09:42:52;;;;;;;23.50;12.82;;;;;;;;;;6218796;28;20160;-73
2023/12/12 09:45:57;;;;;;;12.82;7.53;;;;;;;;;;6227769;28;20053;-73
2023/12/12 09:49:04;;;;;;;14.02;7.25;;;;;;;;;;6236150;28;20700;-72
2023/12/12 09:52:07;;;;;;;7.68;3.70;;;;;;;;;;6204919;28;20076;-73
2023/12/12 09:55:10;;;;;;;6.88;2.72;;;;;;;;;;6225918;28;20049;-72
2023/12/12 09:58:12;;;;;;;7.30;2.88;;;;;;;;;;6216662;28;20087;-72
2023/12/12 10:01:15;;;;;;;6.15;4.82;;;;;;;;;;6211857;28;20116;-72
2023/12/12 10:04:18;;;;;;;7.68;3.33;;;;;;;;;;6208386;28;20866;-72
2023/12/12 10:07:24;;;;;;;6.40;2.22;;;;;;;;;;6220853;28;20045;-72
2023/12/12 10:10:26;;;;;;;4.57;3.00;;;;;;;;;;6219119;28;20621;-72
2023/12/12 10:13:28;;;;;;;7.55;2.75;;;;;;;;;;6195020;28;20204;-72
2023/12/12 10:16:30;;;;;;;4.57;2.28;;;;;;;;;;6212525;28;20530;-72
2023/12/12 10:19:32;;;;;;;5.03;1.95;;;;;;;;;;6237205;28;20566;-73
2023/12/12 10:22:35;;;;;;;3.85;2.05;;;;;;;;;;6235772;28;20041;-72
2023/12/12 10:25:46;;;;;;;7.28;2.83;;;;;;;;;;6223494;28;20095;-72
2023/12/12 10:28:48;;;;;;;7.03;2.30;;;;;;;;;;6199990;28;20044;-72
2023/12/12 10:31:54;;;;;;;5.50;2.30;;;;;;;;;;6208180;28;21475;-72
2023/12/12 10:34:56;;;;;;;4.68;2.75;;;;;;;;;;6224155;28;20044;-73
2023/12/12 10:38:04;;;;;;;12.25;5.05;;;;;;;;;;6226026;28;20038;-73
2023/12/12 10:41:17;;;;;;;9.27;2.38;;;;;;;;;;6218134;28;20818;-72
2023/12/12 10:44:21;;;;;;;6.80;2.88;;;;;;;;;;6230535;28;20492;-72
2023/12/12 10:47:24;;;;;;;8.25;4.75;;;;;;;;;;6214037;28;20054;-72
2023/12/12 10:50:32;;;;;;;4.35;2.33;;;;;;;;;;6219760;28;20053;-72
2023/12/12 10:53:35;;;;;;;7.30;2.30;;;;;;;;;;6205417;28;20582;-72
2023/12/12 10:56:38;;;;;;;5.80;2.33;;;;;;;;;;6188486;28;20814;-72
2023/12/12 10:59:40;;;;;;;4.13;1.55;;;;;;;;;;6221004;28;20049;-73
2023/12/12 11:03:03;;;;;;;7.75;3.22;;;;;;;;;;6199102;28;20037;-72
2023/12/12 11:06:06;;;;;;;6.28;2.50;;;;;;;;;;6213131;28;20553;-72
2023/12/12 11:09:08;;;;;;;3.67;2.25;;;;;;;;;;6205404;28;20049;-72
2023/12/12 11:12:11;;;;;;;8.52;2.88;;;;;;;;;;6221829;28;20092;-73
2023/12/12 11:15:14;;;;;;;4.00;2.00;;;;;;;;;;6215158;28;20038;-73
2023/12/12 11:18:20;;;;;;;5.22;2.67;;;;;;;;;;6209173;28;20045;-73
2023/12/12 11:21:43;;;;;;;6.78;3.30;;;;;;;;;;6214673;28;20045;-72
2023/12/12 11:25:03;;;;;;;3.15;1.95;;;;;;;;;;6229846;28;20622;-73
2023/12/12 11:28:05;;;;;;;4.43;2.30;;;;;;;;;;6212093;28;20176;-73
2023/12/12 11:31:26;;;;;;;4.30;2.25;;;;;;;;;;6214986;28;20127;-72
2023/12/12 11:34:41;;;;;;;6.05;2.25;;;;;;;;;;6233030;28;20046;-72
2023/12/12 11:37:44;;;;;;;4.32;1.63;;;;;;;;;;6208881;28;20860;-73
2023/12/12 11:41:10;;;;;;;2.92;1.33;;;;;;;;;;6218515;28;20558;-73
2023/12/12 11:44:12;;;;;;;4.78;1.90;;;;;;;;;;6217837;28;20049;-73
2023/12/12 11:47:16;;;;;;;6.57;3.63;;;;;;;;;;6214716;28;20034;-73
2023/12/12 11:50:21;;;;;;;5.93;2.35;;;;;;;;;;6210767;28;20049;-73
2023/12/12 11:53:45;;;;;;;7.43;3.63;;;;;;;;;;6205542;28;20442;-73
2023/12/12 11:56:54;;;;;;;4.57;2.10;;;;;;;;;;6225351;28;20065;-73
2023/12/12 12:00:00;;;;;;;5.07;2.85;;;;;;;;;;6212973;28;20073;-73
2023/12/12 12:03:08;;;;;;;6.88;3.20;;;;;;;;;;6204848;28;20073;-73
2023/12/12 12:06:10;;;;;;;5.03;2.95;;;;;;;;;;6216796;28;20043;-73
2023/12/12 12:09:15;;;;;;;14.27;7.53;;;;;;;;;;6215150;28;20068;-73
2023/12/12 12:12:17;;;;;;;3.63;2.38;;;;;;;;;;6222636;28;20049;-73
2023/12/12 12:15:19;;;;;;;11.95;2.90;;;;;;;;;;6205516;28;20099;-72
2023/12/12 12:18:28;;;;;;;4.53;2.17;;;;;;;;;;6199981;28;20118;-73
2023/12/12 12:21:30;;;;;;;4.47;2.78;;;;;;;;;;6214626;28;20088;-74
2023/12/12 12:24:33;;;;;;;3.60;2.22;;;;;;;;;;6206377;28;20046;-73
2023/12/12 12:27:53;;;;;;;6.13;2.38;;;;;;;;;;6204164;28;20104;-73
2023/12/12 12:30:58;;;;;;;5.55;2.60;;;;;;;;;;6204901;28;20057;-73
2023/12/12 12:34:00;;;;;;;8.68;3.40;;;;;;;;;;6208050;28;20050;-73
2023/12/12 12:37:03;;;;;;;5.72;3.33;;;;;;;;;;6195427;28;20945;-72
2023/12/12 12:40:10;;;;;;;6.28;3.22;;;;;;;;;;6222045;28;20800;-73
2023/12/12 12:43:17;;;;;;;5.07;3.15;;;;;;;;;;6222097;28;20596;-73
2023/12/12 12:46:19;;;;;;;4.40;3.17;;;;;;;;;;6176321;28;20412;-73
2023/12/12 12:49:22;;;;;;;4.32;3.08;;;;;;;;;;6204076;28;20061;-72
2023/12/12 12:52:24;;;;;;;6.88;3.25;;;;;;;;;;6206021;28;20041;-73
2023/12/12 12:55:27;;;;;;;4.05;2.83;;;;;;;;;;6216157;28;20458;-72
2023/12/12 12:58:29;;;;;;;5.55;3.50;;;;;;;;;;6213214;28;20099;-73
2023/12/12 13:01:31;;;;;;;4.13;2.20;;;;;;;;;;6219172;28;20046;-73
2023/12/12 13:04:35;;;;;;;3.95;2.70;;;;;;;;;;6219453;28;20442;-73
2023/12/12 13:07:37;;;;;;;4.78;2.58;;;;;;;;;;6212548;28;20045;-73
2023/12/12 13:10:40;;;;;;;5.28;3.60;;;;;;;;;;6206139;28;20058;-73
2023/12/12 13:13:51;;;;;;;7.75;4.88;;;;;;;;;;6219666;28;20060;-73
2023/12/12 13:16:53;;;;;;;5.00;2.90;;;;;;;;;;6221297;28;20038;-73
2023/12/12 13:19:56;;;;;;;5.00;2.88;;;;;;;;;;6241522;28;20550;-73
2023/12/12 13:22:58;;;;;;;4.05;2.45;;;;;;;;;;6232934;28;20045;-73
2023/12/12 13:26:01;;;;;;;4.30;3.00;;;;;;;;;;6200204;28;20046;-73
2023/12/12 13:29:03;;;;;;;4.43;2.40;;;;;;;;;;6222912;28;20052;-73
2023/12/12 13:32:06;;;;;;;5.05;3.20;;;;;;;;;;6230982;28;20450;-73
2023/12/12 13:35:12;;;;;;;5.07;2.92;;;;;;;;;;6230424;28;20053;-72
2023/12/12 13:38:32;;;;;;;7.32;4.10;;;;;;;;;;6214222;28;20070;-72
2023/12/12 13:41:34;;;;;;;5.93;2.92;;;;;;;;;;6234551;28;20076;-72
2023/12/12 13:44:36;;;;;;;4.57;2.95;;;;;;;;;;6218369;28;20062;-72
2023/12/12 13:47:39;;;;;;;8.52;3.15;;;;;;;;;;6229181;28;20099;-73
2023/12/12 13:50:41;;;;;;;9.45;2.92;;;;;;;;;;6220836;28;20048;-73
2023/12/12 13:53:43;;;;;;;6.10;3.70;;;;;;;;;;6240670;28;20122;-72
2023/12/12 13:56:45;;;;;;;5.97;2.85;;;;;;;;;;6224464;28;20037;-73
2023/12/12 13:59:48;;;;;;;20.08;3.42;;;;;;;;;;6237610;28;20057;-73
2023/12/12 14:02:51;;;;;;;10.75;3.60;;;;;;;;;;6242587;28;20085;-73
2023/12/12 14:05:53;;;;;;;7.07;3.65;;;;;;;;;;6212173;28;20079;-73
2023/12/12 14:08:55;;;;;;;8.15;4.75;;;;;;;;;;6229293;28;20054;-73
2023/12/12 14:11:57;;;;;;;7.03;3.88;;;;;;;;;;6220752;28;20620;-73
2023/12/12 14:14:59;;;;;;;6.65;4.13;;;;;;;;;;6230569;28;20064;-72
2023/12/12 14:18:02;;;;;;;20.38;13.48;;;;;;;;;;6213415;28;20629;-72
2023/12/12 14:21:05;;;;;;;16.02;7.95;;;;;;;;;;6215172;28;20049;-72
2023/12/12 14:24:07;;;;;;;7.47;3.65;;;;;;;;;;6185553;28;20061;-73
2023/12/12 14:27:09;;;;;;;6.95;3.75;;;;;;;;;;6220564;28;20073;-72
2023/12/12 14:30:14;;;;;;;8.05;6.18;;;;;;;;;;6221961;28;20049;-72
2023/12/12 14:33:18;;;;;;;21.13;9.98;;;;;;;;;;6210423;28;20072;-72
2023/12/12 14:36:20;;;;;;;15.48;8.40;;;;;;;;;;6214141;28;20643;-72
2023/12/12 14:39:22;;;;;;;15.25;8.10;;;;;;;;;;6216927;28;20041;-72
2023/12/12 14:55:38;;;;;;;44.08;28.70;;;;;;;;;;6342316;27;24596;-71
2023/12/12 14:58:41;;;;;;;63.05;34.22;;;;;;;;;;6293368;28;20036;-72
2023/12/12 15:01:44;;;;;;;38.15;24.88;;;;;;;;;;6317591;28;20076;-72
2023/12/12 15:04:47;;;;;;;32.30;18.05;;;;;;;;;;6316660;28;20146;-71
2023/12/12 15:07:49;;;;;;;21.50;13.55;;;;;;;;;;6316612;28;20114;-72
2023/12/12 15:10:52;;;;;;;12.65;9.98;;;;;;;;;;6297925;28;20052;-71
2023/12/12 15:13:55;;;;;;;21.27;14.27;;;;;;;;;;6282777;28;20101;-70
2023/12/12 15:16:57;;;;;;;12.75;9.95;;;;;;;;;;6306109;28;20044;-71
2023/12/12 15:19:59;;;;;;;13.77;9.48;;;;;;;;;;6311739;28;20047;-71
2023/12/12 15:23:01;;;;;;;8.98;5.30;;;;;;;;;;6294189;28;20192;-71
2023/12/12 15:26:03;;;;;;;12.40;7.68;;;;;;;;;;6309160;28;20048;-71
2023/12/12 15:29:06;;;;;;;12.50;9.32;;;;;;;;;;6296490;28;20059;-70
2023/12/12 15:32:11;;;;;;;11.75;10.00;;;;;;;;;;6312308;28;20056;-71
2023/12/12 15:35:13;;;;;;;12.32;11.05;;;;;;;;;;6296334;28;20047;-72
2023/12/12 15:38:16;;;;;;;11.15;9.00;;;;;;;;;;6296470;28;20100;-72
2023/12/12 15:41:18;;;;;;;9.50;8.50;;;;;;;;;;6332430;27;20534;-70
2023/12/12 15:44:20;;;;;;;20.38;14.45;;;;;;;;;;6299603;28;20113;-72
2023/12/12 15:47:22;;;;;;;31.00;21.38;;;;;;;;;;6318611;28;20127;-71
2023/12/12 15:50:24;;;;;;;37.70;23.80;;;;;;;;;;6319221;28;20100;-70
2023/12/12 15:53:26;;;;;;;54.25;40.10;;;;;;;;;;6320767;28;20040;-71
2023/12/12 15:56:28;;;;;;;22.70;14.35;;;;;;;;;;6277764;28;20048;-71
2023/12/12 15:59:34;;;;;;;24.55;15.25;;;;;;;;;;6294999;28;20044;-71
2023/12/12 16:02:36;;;;;;;27.80;13.63;;;;;;;;;;6280192;28;20132;-72
2023/12/12 16:05:39;;;;;;;28.10;19.95;;;;;;;;;;6281419;28;20707;-72
2023/12/12 16:08:44;;;;;;;46.40;31.98;;;;;;;;;;6301575;28;20048;-72
2023/12/12 16:11:46;;;;;;;34.83;25.30;;;;;;;;;;6299426;28;20052;-72
2023/12/12 16:14:49;;;;;;;26.05;16.75;;;;;;;;;;6309575;28;20185;-70
2023/12/12 16:17:51;;;;;;;52.35;23.13;;;;;;;;;;6288660;28;20438;-72
2023/12/12 16:20:54;;;;;;;78.80;49.40;;;;;;;;;;6290946;28;20129;-71
2023/12/12 16:23:57;;;;;;;99.85;62.65;;;;;;;;;;6300533;28;20040;-71
2023/12/12 16:27:00;;;;;;;126.10;75.07;;;;;;;;;;6317743;27;20068;-72
2023/12/12 16:30:05;;;;;;;58.67;37.13;;;;;;;;;;6299634;28;20063;-71
2023/12/12 16:33:10;;;;;;;49.10;32.78;;;;;;;;;;6283842;28;20149;-71
2023/12/12 16:36:13;;;;;;;36.13;22.45;;;;;;;;;;6279722;28;20082;-72
2023/12/12 16:39:15;;;;;;;37.53;26.33;;;;;;;;;;6305371;28;20544;-71
2023/12/12 16:42:17;;;;;;;32.97;19.33;;;;;;;;;;6292199;28;20422;-71
2023/12/12 16:45:19;;;;;;;26.30;16.08;;;;;;;;;;6291857;28;20146;-70
2023/12/12 16:48:21;;;;;;;29.73;20.20;;;;;;;;;;6276074;28;20052;-70
2023/12/12 16:51:24;;;;;;;30.58;19.98;;;;;;;;;;6296416;28;20048;-70
2023/12/12 16:54:26;;;;;;;26.35;18.83;;;;;;;;;;6276383;28;20044;-71
2023/12/12 16:57:28;;;;;;;37.95;24.58;;;;;;;;;;6251836;28;20197;-69
2023/12/12 17:00:32;;;;;;;45.97;24.85;;;;;;;;;;6299167;28;20383;-71
2023/12/12 17:03:34;;;;;;;43.15;27.05;;;;;;;;;;6268145;28;20040;-71
2023/12/12 17:06:36;;;;;;;43.80;28.00;;;;;;;;;;6293485;28;20158;-71
2023/12/12 17:09:39;;;;;;;40.13;24.30;;;;;;;;;;6305393;28;20040;-70
2023/12/12 17:12:41;;;;;;;20.40;12.18;;;;;;;;;;6278985;28;20115;-71
2023/12/12 17:15:43;;;;;;;20.80;15.07;;;;;;;;;;6305529;28;20058;-70
2023/12/12 17:18:46;;;;;;;19.20;13.25;;;;;;;;;;6305661;28;20120;-70
2023/12/12 17:21:51;;;;;;;21.73;19.42;;;;;;;;;;6297076;28;20040;-71
2023/12/12 17:24:53;;;;;;;17.30;10.75;;;;;;;;;;6311709;27;20552;-70
2023/12/12 17:27:55;;;;;;;17.75;14.50;;;;;;;;;;6307068;28;20156;-71
2023/12/12 17:30:57;;;;;;;21.15;16.90;;;;;;;;;;6299529;28;20048;-71
2023/12/12 17:34:03;;;;;;;17.75;11.48;;;;;;;;;;6287168;28;20492;-72
2023/12/12 17:37:05;;;;;;;17.10;11.80;;;;;;;;;;6286693;28;20571;-72
2023/12/12 17:40:08;;;;;;;16.75;13.60;;;;;;;;;;6281318;28;20526;-70
2023/12/12 17:43:11;;;;;;;16.85;13.52;;;;;;;;;;6295071;28;20036;-70
2023/12/12 17:46:13;;;;;;;16.13;13.15;;;;;;;;;;6308766;28;20049;-69
2023/12/12 17:49:16;;;;;;;23.23;13.52;;;;;;;;;;6265529;28;20545;-71
2023/12/12 17:52:18;;;;;;;15.45;9.25;;;;;;;;;;6287795;28;20513;-68
2023/12/12 17:55:20;;;;;;;22.52;14.52;;;;;;;;;;6298928;28;20036;-70
2023/12/12 17:58:22;;;;;;;21.05;16.02;;;;;;;;;;6302432;28;20051;-70
2023/12/12 18:01:32;;;;;;;16.33;13.18;;;;;;;;;;6282190;28;20040;-71
2023/12/12 18:04:34;;;;;;;17.80;14.45;;;;;;;;;;6273719;28;20059;-70
2023/12/12 18:07:37;;;;;;;15.73;9.43;;;;;;;;;;6299756;28;20532;-70
2023/12/12 18:10:40;;;;;;;20.48;13.63;;;;;;;;;;6298352;28;20060;-71